sensor_id;sensor_type;location;lat;lon;timestamp;pressure;altitude;pressure_sealevel;temperature
66372;BMP180;53168;51.146;17.120;2022-07-06T00:01:45;100467.00;;;17.50
66372;BMP180;53168;51.146;17.120;2022-07-06T00:04:14;100460.40;;;17.50
66372;BMP180;53168;51.146;17.120;2022-07-06T00:06:43;100456.60;;;17.50
66372;BMP180;53168;51.146;17.120;2022-07-06T00:09:13;100462.00;;;17.50
66372;BMP180;53168;51.146;17.120;2022-07-06T00:11:42;100465.40;;;17.42
66372;BMP180;53168;51.146;17.120;2022-07-06T00:14:12;100467.40;;;17.40
66372;BMP180;53168;51.146;17.120;2022-07-06T00:16:41;100462.00;;;17.40
66372;BMP180;53168;51.146;17.120;2022-07-06T00:19:10;100463.40;;;17.40
66372;BMP180;53168;51.146;17.120;2022-07-06T00:21:40;100459.80;;;17.40
66372;BMP180;53168;51.146;17.120;2022-07-06T00:24:09;100457.60;;;17.40
66372;BMP180;53168;51.146;17.120;2022-07-06T00:26:38;100467.00;;;17.40
66372;BMP180;53168;51.146;17.120;2022-07-06T00:29:07;100468.20;;;17.40
66372;BMP180;53168;51.146;17.120;2022-07-06T00:31:37;100470.40;;;17.40
66372;BMP180;53168;51.146;17.120;2022-07-06T00:34:06;100468.80;;;17.40
66372;BMP180;53168;51.146;17.120;2022-07-06T00:36:35;100463.80;;;17.40
66372;BMP180;53168;51.146;17.120;2022-07-06T00:39:05;100461.40;;;17.40
66372;BMP180;53168;51.146;17.120;2022-07-06T00:41:34;100454.40;;;17.40
66372;BMP180;53168;51.146;17.120;2022-07-06T00:44:08;100456.60;;;17.40
66372;BMP180;53168;51.146;17.120;2022-07-06T00:46:38;100453.40;;;17.40
66372;BMP180;53168;51.146;17.120;2022-07-06T00:49:07;100456.00;;;17.40
66372;BMP180;53168;51.146;17.120;2022-07-06T00:51:57;100450.20;;;17.38
66372;BMP180;53168;51.146;17.120;2022-07-06T00:54:30;100446.60;;;17.32
66372;BMP180;53168;51.146;17.120;2022-07-06T00:56:59;100449.40;;;17.30
66372;BMP180;53168;51.146;17.120;2022-07-06T00:59:30;100452.20;;;17.20
66372;BMP180;53168;51.146;17.120;2022-07-06T01:01:59;100447.20;;;17.14
66372;BMP180;53168;51.146;17.120;2022-07-06T01:04:29;100448.40;;;17.10
66372;BMP180;53168;51.146;17.120;2022-07-06T01:06:59;100448.60;;;17.10
66372;BMP180;53168;51.146;17.120;2022-07-06T01:09:28;100452.60;;;17.10
66372;BMP180;53168;51.146;17.120;2022-07-06T01:11:58;100449.80;;;17.10
66372;BMP180;53168;51.146;17.120;2022-07-06T01:14:28;100450.60;;;17.10
66372;BMP180;53168;51.146;17.120;2022-07-06T01:16:58;100447.20;;;17.04
66372;BMP180;53168;51.146;17.120;2022-07-06T01:19:27;100446.20;;;17.00
66372;BMP180;53168;51.146;17.120;2022-07-06T01:21:57;100452.20;;;17.00
66372;BMP180;53168;51.146;17.120;2022-07-06T01:24:26;100452.00;;;17.00
66372;BMP180;53168;51.146;17.120;2022-07-06T01:26:56;100452.00;;;16.90
66372;BMP180;53168;51.146;17.120;2022-07-06T01:29:26;100452.00;;;16.90
66372;BMP180;53168;51.146;17.120;2022-07-06T01:31:55;100447.80;;;16.90
66372;BMP180;53168;51.146;17.120;2022-07-06T01:34:24;100447.00;;;16.90
66372;BMP180;53168;51.146;17.120;2022-07-06T01:36:54;100441.20;;;16.90
66372;BMP180;53168;51.146;17.120;2022-07-06T01:39:24;100444.00;;;16.90
66372;BMP180;53168;51.146;17.120;2022-07-06T01:41:53;100440.00;;;16.90
66372;BMP180;53168;51.146;17.120;2022-07-06T01:44:22;100437.80;;;16.90
66372;BMP180;53168;51.146;17.120;2022-07-06T01:46:51;100435.20;;;16.90
66372;BMP180;53168;51.146;17.120;2022-07-06T01:49:20;100434.80;;;16.90
66372;BMP180;53168;51.146;17.120;2022-07-06T01:51:50;100438.00;;;17.00
66372;BMP180;53168;51.146;17.120;2022-07-06T01:54:19;100443.00;;;17.10
66372;BMP180;53168;51.146;17.120;2022-07-06T01:56:48;100444.00;;;17.10
66372;BMP180;53168;51.146;17.120;2022-07-06T01:59:18;100440.20;;;17.00
66372;BMP180;53168;51.146;17.120;2022-07-06T02:01:47;100442.40;;;17.00
66372;BMP180;53168;51.146;17.120;2022-07-06T02:04:17;100447.40;;;17.00
66372;BMP180;53168;51.146;17.120;2022-07-06T02:06:46;100449.20;;;16.90
66372;BMP180;53168;51.146;17.120;2022-07-06T02:09:16;100449.60;;;16.90
66372;BMP180;53168;51.146;17.120;2022-07-06T02:11:46;100451.00;;;16.80
66372;BMP180;53168;51.146;17.120;2022-07-06T02:14:16;100456.80;;;16.80
66372;BMP180;53168;51.146;17.120;2022-07-06T02:16:45;100456.20;;;16.80
66372;BMP180;53168;51.146;17.120;2022-07-06T02:19:18;100454.80;;;16.80
66372;BMP180;53168;51.146;17.120;2022-07-06T02:21:48;100456.00;;;16.80
66372;BMP180;53168;51.146;17.120;2022-07-06T02:24:17;100453.80;;;16.88
66372;BMP180;53168;51.146;17.120;2022-07-06T02:26:46;100453.00;;;17.00
66372;BMP180;53168;51.146;17.120;2022-07-06T02:29:15;100447.00;;;17.08
66372;BMP180;53168;51.146;17.120;2022-07-06T02:31:45;100441.80;;;17.10
66372;BMP180;53168;51.146;17.120;2022-07-06T02:34:14;100437.60;;;17.20
66372;BMP180;53168;51.146;17.120;2022-07-06T02:36:44;100437.60;;;17.24
66372;BMP180;53168;51.146;17.120;2022-07-06T02:39:13;100440.80;;;17.30
66372;BMP180;53168;51.146;17.120;2022-07-06T02:41:42;100448.00;;;17.20
66372;BMP180;53168;51.146;17.120;2022-07-06T02:44:11;100450.80;;;17.10
66372;BMP180;53168;51.146;17.120;2022-07-06T02:46:41;100449.20;;;16.90
66372;BMP180;53168;51.146;17.120;2022-07-06T02:49:10;100453.40;;;16.80
66372;BMP180;53168;51.146;17.120;2022-07-06T02:51:40;100452.80;;;16.78
66372;BMP180;53168;51.146;17.120;2022-07-06T02:54:09;100448.40;;;16.70
66372;BMP180;53168;51.146;17.120;2022-07-06T02:56:39;100453.00;;;16.70
66372;BMP180;53168;51.146;17.120;2022-07-06T02:59:08;100452.00;;;16.70
66372;BMP180;53168;51.146;17.120;2022-07-06T03:01:43;100449.00;;;16.70
66372;BMP180;53168;51.146;17.120;2022-07-06T03:04:12;100449.60;;;16.70
66372;BMP180;53168;51.146;17.120;2022-07-06T03:06:42;100450.60;;;16.68
66372;BMP180;53168;51.146;17.120;2022-07-06T03:09:12;100452.00;;;16.60
66372;BMP180;53168;51.146;17.120;2022-07-06T03:11:42;100447.20;;;16.60
66372;BMP180;53168;51.146;17.120;2022-07-06T03:14:12;100441.40;;;16.70
66372;BMP180;53168;51.146;17.120;2022-07-06T03:16:44;100441.00;;;16.78
66372;BMP180;53168;51.146;17.120;2022-07-06T03:19:20;100440.00;;;16.78
66372;BMP180;53168;51.146;17.120;2022-07-06T03:21:50;100440.00;;;16.80
66372;BMP180;53168;51.146;17.120;2022-07-06T03:24:19;100440.80;;;16.70
66372;BMP180;53168;51.146;17.120;2022-07-06T03:26:49;100438.60;;;16.70
66372;BMP180;53168;51.146;17.120;2022-07-06T03:29:18;100444.40;;;16.70
66372;BMP180;53168;51.146;17.120;2022-07-06T03:31:49;100451.00;;;16.70
66372;BMP180;53168;51.146;17.120;2022-07-06T03:34:18;100451.80;;;16.66
66372;BMP180;53168;51.146;17.120;2022-07-06T03:36:48;100456.00;;;16.60
66372;BMP180;53168;51.146;17.120;2022-07-06T03:39:18;100465.60;;;16.60
66372;BMP180;53168;51.146;17.120;2022-07-06T03:41:48;100468.80;;;16.60
66372;BMP180;53168;51.146;17.120;2022-07-06T03:47:16;100448.20;;;16.50
66372;BMP180;53168;51.146;17.120;2022-07-06T03:49:46;100463.40;;;16.50
66372;BMP180;53168;51.146;17.120;2022-07-06T03:52:16;100491.20;;;16.52
66372;BMP180;53168;51.146;17.120;2022-07-06T03:54:50;100499.60;;;16.60
66372;BMP180;53168;51.146;17.120;2022-07-06T03:57:23;100506.20;;;16.68
66372;BMP180;53168;51.146;17.120;2022-07-06T03:59:54;100512.20;;;16.70
66372;BMP180;53168;51.146;17.120;2022-07-06T04:02:25;100509.80;;;16.86
66372;BMP180;53168;51.146;17.120;2022-07-06T04:04:55;100503.00;;;17.00
66372;BMP180;53168;51.146;17.120;2022-07-06T04:07:24;100506.80;;;17.00
66372;BMP180;53168;51.146;17.120;2022-07-06T04:09:54;100507.40;;;17.00
66372;BMP180;53168;51.146;17.120;2022-07-06T04:12:23;100502.40;;;17.10
66372;BMP180;53168;51.146;17.120;2022-07-06T04:14:57;100507.20;;;17.10
66372;BMP180;53168;51.146;17.120;2022-07-06T04:17:26;100513.40;;;17.10
66372;BMP180;53168;51.146;17.120;2022-07-06T04:20:15;100511.00;;;17.14
66372;BMP180;53168;51.146;17.120;2022-07-06T04:22:44;100518.80;;;17.20
66372;BMP180;53168;51.146;17.120;2022-07-06T04:25:13;100517.60;;;17.20
66372;BMP180;53168;51.146;17.120;2022-07-06T04:27:43;100522.60;;;17.20
66372;BMP180;53168;51.146;17.120;2022-07-06T04:30:14;100528.00;;;17.20
66372;BMP180;53168;51.146;17.120;2022-07-06T04:32:48;100533.00;;;17.18
66372;BMP180;53168;51.146;17.120;2022-07-06T04:35:17;100540.00;;;17.00
66372;BMP180;53168;51.146;17.120;2022-07-06T04:37:48;100545.00;;;16.80
66372;BMP180;53168;51.146;17.120;2022-07-06T04:40:21;100546.60;;;16.52
66372;BMP180;53168;51.146;17.120;2022-07-06T04:42:52;100552.00;;;16.40
66372;BMP180;53168;51.146;17.120;2022-07-06T04:45:22;100557.80;;;16.30
66372;BMP180;53168;51.146;17.120;2022-07-06T04:47:51;100568.40;;;16.10
66372;BMP180;53168;51.146;17.120;2022-07-06T04:50:21;100572.00;;;16.04
66372;BMP180;53168;51.146;17.120;2022-07-06T04:52:51;100571.80;;;16.00
66372;BMP180;53168;51.146;17.120;2022-07-06T04:55:20;100580.00;;;15.90
66372;BMP180;53168;51.146;17.120;2022-07-06T04:57:50;100577.20;;;15.80
66372;BMP180;53168;51.146;17.120;2022-07-06T05:00:20;100578.00;;;15.80
66372;BMP180;53168;51.146;17.120;2022-07-06T05:02:51;100581.60;;;15.80
66372;BMP180;53168;51.146;17.120;2022-07-06T05:05:20;100585.80;;;15.80
66372;BMP180;53168;51.146;17.120;2022-07-06T05:07:51;100591.40;;;15.80
66372;BMP180;53168;51.146;17.120;2022-07-06T05:10:21;100590.40;;;15.80
66372;BMP180;53168;51.146;17.120;2022-07-06T05:12:54;100589.00;;;15.80
66372;BMP180;53168;51.146;17.120;2022-07-06T05:15:25;100591.40;;;15.80
66372;BMP180;53168;51.146;17.120;2022-07-06T05:17:55;100590.00;;;15.80
66372;BMP180;53168;51.146;17.120;2022-07-06T05:20:25;100590.80;;;15.84
66372;BMP180;53168;51.146;17.120;2022-07-06T05:22:54;100594.80;;;15.90
66372;BMP180;53168;51.146;17.120;2022-07-06T05:25:27;100591.20;;;15.90
66372;BMP180;53168;51.146;17.120;2022-07-06T05:27:57;100586.00;;;15.90
66372;BMP180;53168;51.146;17.120;2022-07-06T05:30:26;100591.20;;;16.00
66372;BMP180;53168;51.146;17.120;2022-07-06T05:32:56;100585.80;;;16.00
66372;BMP180;53168;51.146;17.120;2022-07-06T05:35:26;100581.00;;;16.00
66372;BMP180;53168;51.146;17.120;2022-07-06T05:38:16;100576.80;;;16.00
66372;BMP180;53168;51.146;17.120;2022-07-06T05:40:45;100572.40;;;16.02
66372;BMP180;53168;51.146;17.120;2022-07-06T05:43:14;100572.40;;;16.00
66372;BMP180;53168;51.146;17.120;2022-07-06T05:45:44;100567.00;;;16.10
66372;BMP180;53168;51.146;17.120;2022-07-06T05:48:13;100561.40;;;16.14
66372;BMP180;53168;51.146;17.120;2022-07-06T05:51:02;100565.60;;;16.30
66372;BMP180;53168;51.146;17.120;2022-07-06T05:53:33;100561.80;;;16.34
66372;BMP180;53168;51.146;17.120;2022-07-06T05:56:02;100559.20;;;16.48
66372;BMP180;53168;51.146;17.120;2022-07-06T05:58:32;100552.40;;;16.58
66372;BMP180;53168;51.146;17.120;2022-07-06T06:01:01;100547.80;;;16.60
66372;BMP180;53168;51.146;17.120;2022-07-06T06:03:31;100547.40;;;16.62
66372;BMP180;53168;51.146;17.120;2022-07-06T06:06:01;100546.00;;;16.70
66372;BMP180;53168;51.146;17.120;2022-07-06T06:08:30;100537.20;;;16.80
66372;BMP180;53168;51.146;17.120;2022-07-06T06:11:00;100530.80;;;16.90
66372;BMP180;53168;51.146;17.120;2022-07-06T06:13:39;100521.80;;;17.00
66372;BMP180;53168;51.146;17.120;2022-07-06T06:16:08;100523.40;;;17.00
66372;BMP180;53168;51.146;17.120;2022-07-06T06:18:38;100522.20;;;17.10
66372;BMP180;53168;51.146;17.120;2022-07-06T06:21:11;100516.80;;;17.14
66372;BMP180;53168;51.146;17.120;2022-07-06T06:23:41;100522.60;;;17.20
66372;BMP180;53168;51.146;17.120;2022-07-06T06:26:10;100525.40;;;17.36
66372;BMP180;53168;51.146;17.120;2022-07-06T06:28:40;100525.60;;;17.44
66372;BMP180;53168;51.146;17.120;2022-07-06T06:31:10;100540.20;;;17.60
66372;BMP180;53168;51.146;17.120;2022-07-06T06:33:39;100566.80;;;17.74
66372;BMP180;53168;51.146;17.120;2022-07-06T06:36:09;100602.40;;;17.90
66372;BMP180;53168;51.146;17.120;2022-07-06T06:38:39;100609.80;;;18.00
66372;BMP180;53168;51.146;17.120;2022-07-06T06:41:08;100613.40;;;18.10
66372;BMP180;53168;51.146;17.120;2022-07-06T06:43:38;100600.00;;;18.14
66372;BMP180;53168;51.146;17.120;2022-07-06T06:46:13;100607.80;;;18.12
66372;BMP180;53168;51.146;17.120;2022-07-06T06:48:42;100606.00;;;18.20
66372;BMP180;53168;51.146;17.120;2022-07-06T06:51:11;100608.20;;;18.20
66372;BMP180;53168;51.146;17.120;2022-07-06T06:53:41;100610.20;;;18.20
66372;BMP180;53168;51.146;17.120;2022-07-06T06:56:10;100613.60;;;18.20
66372;BMP180;53168;51.146;17.120;2022-07-06T06:58:39;100615.60;;;18.10
66372;BMP180;53168;51.146;17.120;2022-07-06T07:01:29;100608.80;;;18.00
66372;BMP180;53168;51.146;17.120;2022-07-06T07:03:59;100609.80;;;17.90
66372;BMP180;53168;51.146;17.120;2022-07-06T07:06:28;100601.00;;;17.80
66372;BMP180;53168;51.146;17.120;2022-07-06T07:08:57;100609.00;;;17.80
66372;BMP180;53168;51.146;17.120;2022-07-06T07:11:27;100610.00;;;17.90
66372;BMP180;53168;51.146;17.120;2022-07-06T07:13:56;100607.80;;;17.90
66372;BMP180;53168;51.146;17.120;2022-07-06T07:16:25;100607.80;;;18.00
66372;BMP180;53168;51.146;17.120;2022-07-06T07:18:55;100601.40;;;18.16
66372;BMP180;53168;51.146;17.120;2022-07-06T07:21:24;100606.80;;;18.30
66372;BMP180;53168;51.146;17.120;2022-07-06T07:23:53;100608.60;;;18.50
66372;BMP180;53168;51.146;17.120;2022-07-06T07:26:22;100604.20;;;18.62
66372;BMP180;53168;51.146;17.120;2022-07-06T07:28:52;100607.00;;;18.78
66372;BMP180;53168;51.146;17.120;2022-07-06T07:31:21;100610.20;;;18.90
66372;BMP180;53168;51.146;17.120;2022-07-06T07:33:50;100605.80;;;19.00
66372;BMP180;53168;51.146;17.120;2022-07-06T07:36:30;100603.40;;;19.18
66372;BMP180;53168;51.146;17.120;2022-07-06T07:38:59;100605.60;;;19.30
66372;BMP180;53168;51.146;17.120;2022-07-06T07:41:28;100611.40;;;19.40
66372;BMP180;53168;51.146;17.120;2022-07-06T07:43:58;100605.00;;;19.40
66372;BMP180;53168;51.146;17.120;2022-07-06T07:46:27;100600.80;;;19.40
66372;BMP180;53168;51.146;17.120;2022-07-06T07:48:56;100600.20;;;19.40
66372;BMP180;53168;51.146;17.120;2022-07-06T07:51:26;100597.40;;;19.50
66372;BMP180;53168;51.146;17.120;2022-07-06T07:53:55;100595.60;;;19.60
66372;BMP180;53168;51.146;17.120;2022-07-06T07:56:25;100594.80;;;19.70
66372;BMP180;53168;51.146;17.120;2022-07-06T07:58:54;100600.80;;;19.80
66372;BMP180;53168;51.146;17.120;2022-07-06T08:01:27;100598.40;;;19.82
66372;BMP180;53168;51.146;17.120;2022-07-06T08:03:56;100599.20;;;19.90
66372;BMP180;53168;51.146;17.120;2022-07-06T08:06:26;100597.20;;;19.90
66372;BMP180;53168;51.146;17.120;2022-07-06T08:08:55;100602.60;;;20.10
66372;BMP180;53168;51.146;17.120;2022-07-06T08:11:24;100601.80;;;20.20
66372;BMP180;53168;51.146;17.120;2022-07-06T08:13:54;100604.60;;;20.30
66372;BMP180;53168;51.146;17.120;2022-07-06T08:16:23;100605.80;;;20.32
66372;BMP180;53168;51.146;17.120;2022-07-06T08:18:53;100608.00;;;20.42
66372;BMP180;53168;51.146;17.120;2022-07-06T08:21:22;100607.40;;;20.60
66372;BMP180;53168;51.146;17.120;2022-07-06T08:23:55;100607.20;;;20.70
66372;BMP180;53168;51.146;17.120;2022-07-06T08:29:31;100609.80;;;20.90
66372;BMP180;53168;51.146;17.120;2022-07-06T08:32:04;100612.40;;;21.00
66372;BMP180;53168;51.146;17.120;2022-07-06T08:34:48;100613.80;;;21.10
66372;BMP180;53168;51.146;17.120;2022-07-06T08:37:18;100609.40;;;21.20
66372;BMP180;53168;51.146;17.120;2022-07-06T08:39:47;100610.60;;;21.22
66372;BMP180;53168;51.146;17.120;2022-07-06T08:42:18;100607.20;;;21.30
66372;BMP180;53168;51.146;17.120;2022-07-06T08:44:50;100604.80;;;21.40
66372;BMP180;53168;51.146;17.120;2022-07-06T08:47:22;100599.60;;;21.50
66372;BMP180;53168;51.146;17.120;2022-07-06T08:49:53;100602.20;;;21.50
66372;BMP180;53168;51.146;17.120;2022-07-06T08:52:24;100598.80;;;21.60
66372;BMP180;53168;51.146;17.120;2022-07-06T08:54:54;100598.00;;;21.70
66372;BMP180;53168;51.146;17.120;2022-07-06T08:57:26;100595.60;;;21.84
66372;BMP180;53168;51.146;17.120;2022-07-06T08:59:56;100602.40;;;22.00
66372;BMP180;53168;51.146;17.120;2022-07-06T09:02:27;100598.20;;;22.10
66372;BMP180;53168;51.146;17.120;2022-07-06T09:04:57;100599.80;;;22.10
66372;BMP180;53168;51.146;17.120;2022-07-06T09:07:29;100594.40;;;22.14
66372;BMP180;53168;51.146;17.120;2022-07-06T09:10:21;100592.80;;;22.20
66372;BMP180;53168;51.146;17.120;2022-07-06T09:12:50;100599.60;;;22.30
66372;BMP180;53168;51.146;17.120;2022-07-06T09:15:24;100595.60;;;22.30
66372;BMP180;53168;51.146;17.120;2022-07-06T09:17:57;100595.60;;;22.30
66372;BMP180;53168;51.146;17.120;2022-07-06T09:20:27;100593.80;;;22.38
66372;BMP180;53168;51.146;17.120;2022-07-06T09:23:04;100587.60;;;22.40
66372;BMP180;53168;51.146;17.120;2022-07-06T09:25:35;100593.00;;;22.50
66372;BMP180;53168;51.146;17.120;2022-07-06T09:28:05;100587.60;;;22.60
66372;BMP180;53168;51.146;17.120;2022-07-06T09:30:35;100590.80;;;22.60
66372;BMP180;53168;51.146;17.120;2022-07-06T09:33:10;100584.20;;;22.70
66372;BMP180;53168;51.146;17.120;2022-07-06T09:35:54;100588.00;;;22.82
66372;BMP180;53168;51.146;17.120;2022-07-06T09:38:29;100588.40;;;23.00
66372;BMP180;53168;51.146;17.120;2022-07-06T09:40:59;100583.20;;;23.10
66372;BMP180;53168;51.146;17.120;2022-07-06T09:43:32;100593.40;;;23.24
66372;BMP180;53168;51.146;17.120;2022-07-06T09:46:02;100583.80;;;23.38
66372;BMP180;53168;51.146;17.120;2022-07-06T09:48:32;100584.40;;;23.42
66372;BMP180;53168;51.146;17.120;2022-07-06T09:51:03;100577.00;;;23.50
66372;BMP180;53168;51.146;17.120;2022-07-06T09:53:36;100572.40;;;23.60
66372;BMP180;53168;51.146;17.120;2022-07-06T09:56:06;100576.40;;;23.70
66372;BMP180;53168;51.146;17.120;2022-07-06T09:58:39;100575.40;;;23.84
66372;BMP180;53168;51.146;17.120;2022-07-06T10:01:29;100569.60;;;24.10
66372;BMP180;53168;51.146;17.120;2022-07-06T10:04:00;100567.40;;;24.32
66372;BMP180;53168;51.146;17.120;2022-07-06T10:06:30;100571.80;;;24.50
66372;BMP180;53168;51.146;17.120;2022-07-06T10:09:00;100572.20;;;24.60
66372;BMP180;53168;51.146;17.120;2022-07-06T10:11:33;100569.20;;;24.70
66372;BMP180;53168;51.146;17.120;2022-07-06T10:14:24;100564.60;;;24.80
66372;BMP180;53168;51.146;17.120;2022-07-06T10:16:55;100568.20;;;25.00
66372;BMP180;53168;51.146;17.120;2022-07-06T10:19:26;100577.00;;;25.10
66372;BMP180;53168;51.146;17.120;2022-07-06T10:21:59;100569.60;;;25.10
66372;BMP180;53168;51.146;17.120;2022-07-06T10:24:30;100567.00;;;25.20
66372;BMP180;53168;51.146;17.120;2022-07-06T10:27:04;100569.80;;;25.30
66372;BMP180;53168;51.146;17.120;2022-07-06T10:29:34;100563.80;;;25.40
66372;BMP180;53168;51.146;17.120;2022-07-06T10:32:05;100565.20;;;25.52
66372;BMP180;53168;51.146;17.120;2022-07-06T10:34:37;100561.60;;;25.60
66372;BMP180;53168;51.146;17.120;2022-07-06T10:37:24;100565.20;;;25.70
66372;BMP180;53168;51.146;17.120;2022-07-06T10:39:57;100563.00;;;25.90
66372;BMP180;53168;51.146;17.120;2022-07-06T10:42:57;100558.40;;;26.20
66372;BMP180;53168;51.146;17.120;2022-07-06T10:45:57;100560.00;;;26.56
66372;BMP180;53168;51.146;17.120;2022-07-06T10:48:36;100558.80;;;26.60
66372;BMP180;53168;51.146;17.120;2022-07-06T10:51:12;100564.00;;;26.50
66372;BMP180;53168;51.146;17.120;2022-07-06T10:53:43;100565.00;;;26.32
66372;BMP180;53168;51.146;17.120;2022-07-06T10:56:19;100558.40;;;26.28
66372;BMP180;53168;51.146;17.120;2022-07-06T10:59:17;100563.60;;;26.32
66372;BMP180;53168;51.146;17.120;2022-07-06T11:02:22;100563.80;;;26.40
66372;BMP180;53168;51.146;17.120;2022-07-06T11:05:03;100563.80;;;26.50
66372;BMP180;53168;51.146;17.120;2022-07-06T11:08:09;100566.60;;;26.94
66372;BMP180;53168;51.146;17.120;2022-07-06T11:10:49;100564.00;;;27.20
66372;BMP180;53168;51.146;17.120;2022-07-06T11:13:31;100564.60;;;27.10
66372;BMP180;53168;51.146;17.120;2022-07-06T11:16:05;100569.00;;;26.82
66372;BMP180;53168;51.146;17.120;2022-07-06T11:18:41;100575.20;;;26.66
66372;BMP180;53168;51.146;17.120;2022-07-06T11:21:27;100582.60;;;26.30
66372;BMP180;53168;51.146;17.120;2022-07-06T11:24:00;100583.00;;;26.00
66372;BMP180;53168;51.146;17.120;2022-07-06T11:26:32;100579.60;;;25.72
66372;BMP180;53168;51.146;17.120;2022-07-06T11:29:10;100589.40;;;25.60
66372;BMP180;53168;51.146;17.120;2022-07-06T11:31:41;100595.20;;;25.60
66372;BMP180;53168;51.146;17.120;2022-07-06T11:34:13;100589.20;;;25.50
66372;BMP180;53168;51.146;17.120;2022-07-06T11:36:46;100588.80;;;25.50
66372;BMP180;53168;51.146;17.120;2022-07-06T11:39:16;100587.60;;;25.56
66372;BMP180;53168;51.146;17.120;2022-07-06T11:41:46;100587.80;;;25.72
66372;BMP180;53168;51.146;17.120;2022-07-06T11:44:20;100588.80;;;25.90
66372;BMP180;53168;51.146;17.120;2022-07-06T11:46:49;100591.20;;;26.00
66372;BMP180;53168;51.146;17.120;2022-07-06T11:49:19;100589.40;;;26.04
66372;BMP180;53168;51.146;17.120;2022-07-06T11:51:49;100586.80;;;26.08
66372;BMP180;53168;51.146;17.120;2022-07-06T11:54:21;100588.80;;;26.10
66372;BMP180;53168;51.146;17.120;2022-07-06T11:56:53;100589.00;;;26.30
66372;BMP180;53168;51.146;17.120;2022-07-06T11:59:25;100581.20;;;26.50
66372;BMP180;53168;51.146;17.120;2022-07-06T12:02:05;100585.40;;;26.80
66372;BMP180;53168;51.146;17.120;2022-07-06T12:04:38;100572.60;;;27.14
66372;BMP180;53168;51.146;17.120;2022-07-06T12:07:11;100563.60;;;27.58
66372;BMP180;53168;51.146;17.120;2022-07-06T12:09:43;100570.40;;;27.80
66372;BMP180;53168;51.146;17.120;2022-07-06T12:12:13;100569.80;;;27.82
66372;BMP180;53168;51.146;17.120;2022-07-06T12:14:43;100580.20;;;27.50
66372;BMP180;53168;51.146;17.120;2022-07-06T12:17:14;100579.40;;;27.20
66372;BMP180;53168;51.146;17.120;2022-07-06T12:19:44;100558.40;;;27.84
66372;BMP180;53168;51.146;17.120;2022-07-06T12:22:13;100550.20;;;28.92
66372;BMP180;53168;51.146;17.120;2022-07-06T12:24:53;100543.80;;;30.48
66372;BMP180;53168;51.146;17.120;2022-07-06T12:27:22;100537.20;;;31.90
66372;BMP180;53168;51.146;17.120;2022-07-06T12:29:51;100565.80;;;32.56
66372;BMP180;53168;51.146;17.120;2022-07-06T12:32:23;100546.80;;;33.38
66372;BMP180;53168;51.146;17.120;2022-07-06T12:35:06;100579.40;;;34.40
66372;BMP180;53168;51.146;17.120;2022-07-06T12:37:36;100550.60;;;34.54
66372;BMP180;53168;51.146;17.120;2022-07-06T12:40:16;100575.60;;;35.48
66372;BMP180;53168;51.146;17.120;2022-07-06T12:42:48;100550.00;;;34.42
66372;BMP180;53168;51.146;17.120;2022-07-06T12:45:18;100567.60;;;34.72
66372;BMP180;53168;51.146;17.120;2022-07-06T12:48:00;100545.00;;;34.54
66372;BMP180;53168;51.146;17.120;2022-07-06T12:50:34;100542.40;;;35.12
66372;BMP180;53168;51.146;17.120;2022-07-06T12:53:06;100534.80;;;36.10
66372;BMP180;53168;51.146;17.120;2022-07-06T12:56:10;100548.00;;;37.22
66372;BMP180;53168;51.146;17.120;2022-07-06T12:58:40;100571.00;;;36.76
66372;BMP180;53168;51.146;17.120;2022-07-06T13:01:22;100579.00;;;35.14
66372;BMP180;53168;51.146;17.120;2022-07-06T13:03:56;100580.60;;;33.74
66372;BMP180;53168;51.146;17.120;2022-07-06T13:06:32;100579.80;;;32.52
66372;BMP180;53168;51.146;17.120;2022-07-06T13:09:01;100583.80;;;31.54
66372;BMP180;53168;51.146;17.120;2022-07-06T13:11:34;100558.20;;;31.62
66372;BMP180;53168;51.146;17.120;2022-07-06T13:14:03;100580.00;;;30.98
66372;BMP180;53168;51.146;17.120;2022-07-06T13:16:49;100577.00;;;30.16
66372;BMP180;53168;51.146;17.120;2022-07-06T13:19:35;100589.20;;;29.50
66372;BMP180;53168;51.146;17.120;2022-07-06T13:22:05;100584.20;;;29.10
66372;BMP180;53168;51.146;17.120;2022-07-06T13:24:36;100590.80;;;28.80
66372;BMP180;53168;51.146;17.120;2022-07-06T13:27:09;100583.20;;;28.70
66372;BMP180;53168;51.146;17.120;2022-07-06T13:29:47;100577.60;;;29.20
66372;BMP180;53168;51.146;17.120;2022-07-06T13:32:19;100587.80;;;29.80
66372;BMP180;53168;51.146;17.120;2022-07-06T13:35:04;100577.60;;;30.30
66372;BMP180;53168;51.146;17.120;2022-07-06T13:37:33;100583.40;;;31.84
66372;BMP180;53168;51.146;17.120;2022-07-06T13:40:04;100589.80;;;31.80
66372;BMP180;53168;51.146;17.120;2022-07-06T13:42:33;100593.80;;;31.08
66372;BMP180;53168;51.146;17.120;2022-07-06T13:45:04;100591.60;;;30.36
66372;BMP180;53168;51.146;17.120;2022-07-06T13:47:33;100591.00;;;29.76
66372;BMP180;53168;51.146;17.120;2022-07-06T13:50:03;100585.20;;;29.30
66372;BMP180;53168;51.146;17.120;2022-07-06T13:52:32;100589.20;;;28.92
66372;BMP180;53168;51.146;17.120;2022-07-06T13:55:01;100588.20;;;28.60
66372;BMP180;53168;51.146;17.120;2022-07-06T13:57:32;100581.80;;;28.40
66372;BMP180;53168;51.146;17.120;2022-07-06T14:00:04;100552.60;;;28.46
66372;BMP180;53168;51.146;17.120;2022-07-06T14:02:37;100550.20;;;30.70
66372;BMP180;53168;51.146;17.120;2022-07-06T14:05:10;100552.20;;;32.82
66372;BMP180;53168;51.146;17.120;2022-07-06T14:07:41;100547.60;;;33.78
66372;BMP180;53168;51.146;17.120;2022-07-06T14:10:11;100574.60;;;33.82
66372;BMP180;53168;51.146;17.120;2022-07-06T14:12:40;100571.60;;;34.54
66372;BMP180;53168;51.146;17.120;2022-07-06T14:15:27;100571.00;;;33.64
66372;BMP180;53168;51.146;17.120;2022-07-06T14:18:40;100573.20;;;32.48